sensor_id;sensor_type;location;lat;lon;timestamp;P1;durP1;ratioP1;P2;durP2;ratioP2
22378;SDS011;11357;49.990;7.370;2023-08-06T00:00:08;12.57;;;7.17;;
22378;SDS011;11357;49.990;7.370;2023-08-06T00:02:34;12.47;;;6.43;;
22378;SDS011;11357;49.990;7.370;2023-08-06T00:05:00;11.13;;;5.90;;
22378;SDS011;11357;49.990;7.370;2023-08-06T00:07:26;10.20;;;6.10;;
22378;SDS011;11357;49.990;7.370;2023-08-06T00:09:52;7.73;;;4.63;;
22378;SDS011;11357;49.990;7.370;2023-08-06T00:12:18;10.77;;;5.10;;
22378;SDS011;11357;49.990;7.370;2023-08-06T00:14:43;7.43;;;4.10;;
22378;SDS011;11357;49.990;7.370;2023-08-06T00:17:10;8.83;;;4.00;;
22378;SDS011;11357;49.990;7.370;2023-08-06T00:19:36;7.80;;;3.50;;
22378;SDS011;11357;49.990;7.370;2023-08-06T00:22:01;5.73;;;3.30;;
22378;SDS011;11357;49.990;7.370;2023-08-06T00:24:27;5.40;;;2.83;;
22378;SDS011;11357;49.990;7.370;2023-08-06T00:26:53;3.90;;;2.13;;
22378;SDS011;11357;49.990;7.370;2023-08-06T00:29:19;4.73;;;1.93;;
22378;SDS011;11357;49.990;7.370;2023-08-06T00:31:45;2.97;;;1.57;;
22378;SDS011;11357;49.990;7.370;2023-08-06T00:34:10;5.43;;;1.67;;
22378;SDS011;11357;49.990;7.370;2023-08-06T00:36:36;3.57;;;1.60;;
22378;SDS011;11357;49.990;7.370;2023-08-06T00:39:02;6.70;;;2.00;;
22378;SDS011;11357;49.990;7.370;2023-08-06T00:41:28;3.77;;;1.57;;
22378;SDS011;11357;49.990;7.370;2023-08-06T00:43:53;10.80;;;1.83;;
22378;SDS011;11357;49.990;7.370;2023-08-06T00:46:19;3.50;;;1.30;;
22378;SDS011;11357;49.990;7.370;2023-08-06T00:48:45;3.63;;;1.40;;
22378;SDS011;11357;49.990;7.370;2023-08-06T00:51:12;3.50;;;1.53;;
22378;SDS011;11357;49.990;7.370;2023-08-06T00:53:38;5.13;;;1.70;;
22378;SDS011;11357;49.990;7.370;2023-08-06T00:56:04;4.63;;;1.63;;
22378;SDS011;11357;49.990;7.370;2023-08-06T00:58:31;5.57;;;1.67;;
22378;SDS011;11357;49.990;7.370;2023-08-06T01:00:57;2.77;;;1.70;;
22378;SDS011;11357;49.990;7.370;2023-08-06T01:03:23;4.13;;;2.10;;
22378;SDS011;11357;49.990;7.370;2023-08-06T01:05:49;4.33;;;2.53;;
22378;SDS011;11357;49.990;7.370;2023-08-06T01:11:10;4.70;;;2.93;;
22378;SDS011;11357;49.990;7.370;2023-08-06T01:13:46;7.47;;;3.10;;
22378;SDS011;11357;49.990;7.370;2023-08-06T01:16:18;6.17;;;3.13;;
22378;SDS011;11357;49.990;7.370;2023-08-06T01:18:46;5.63;;;3.30;;
22378;SDS011;11357;49.990;7.370;2023-08-06T01:21:14;5.27;;;3.20;;
22378;SDS011;11357;49.990;7.370;2023-08-06T01:23:44;5.97;;;3.70;;
22378;SDS011;11357;49.990;7.370;2023-08-06T01:28:58;8.67;;;3.73;;
22378;SDS011;11357;49.990;7.370;2023-08-06T01:31:31;6.07;;;3.13;;
22378;SDS011;11357;49.990;7.370;2023-08-06T01:34:00;5.37;;;3.03;;
22378;SDS011;11357;49.990;7.370;2023-08-06T01:36:26;7.07;;;3.33;;
22378;SDS011;11357;49.990;7.370;2023-08-06T01:38:54;3.77;;;3.10;;
22378;SDS011;11357;49.990;7.370;2023-08-06T01:41:20;4.37;;;3.13;;
22378;SDS011;11357;49.990;7.370;2023-08-06T01:43:45;4.80;;;3.40;;
22378;SDS011;11357;49.990;7.370;2023-08-06T01:46:11;4.90;;;2.80;;
22378;SDS011;11357;49.990;7.370;2023-08-06T01:48:37;6.17;;;3.10;;
22378;SDS011;11357;49.990;7.370;2023-08-06T01:51:06;4.70;;;3.13;;
22378;SDS011;11357;49.990;7.370;2023-08-06T01:53:32;7.37;;;3.53;;
22378;SDS011;11357;49.990;7.370;2023-08-06T01:55:58;6.73;;;3.93;;
22378;SDS011;11357;49.990;7.370;2023-08-06T01:58:24;7.90;;;3.60;;
22378;SDS011;11357;49.990;7.370;2023-08-06T02:00:50;6.50;;;3.00;;
22378;SDS011;11357;49.990;7.370;2023-08-06T02:03:15;4.60;;;3.13;;
22378;SDS011;11357;49.990;7.370;2023-08-06T02:05:41;5.17;;;3.03;;
22378;SDS011;11357;49.990;7.370;2023-08-06T02:08:07;5.03;;;2.83;;
22378;SDS011;11357;49.990;7.370;2023-08-06T02:10:33;6.57;;;3.10;;
22378;SDS011;11357;49.990;7.370;2023-08-06T02:12:58;5.70;;;2.90;;
22378;SDS011;11357;49.990;7.370;2023-08-06T02:15:24;3.53;;;2.60;;
22378;SDS011;11357;49.990;7.370;2023-08-06T02:17:50;6.57;;;3.20;;
22378;SDS011;11357;49.990;7.370;2023-08-06T02:20:16;5.53;;;2.83;;
22378;SDS011;11357;49.990;7.370;2023-08-06T02:22:41;7.83;;;2.70;;
22378;SDS011;11357;49.990;7.370;2023-08-06T02:25:07;4.03;;;2.80;;
22378;SDS011;11357;49.990;7.370;2023-08-06T02:27:33;4.33;;;2.50;;
22378;SDS011;11357;49.990;7.370;2023-08-06T02:29:59;5.17;;;2.67;;
22378;SDS011;11357;49.990;7.370;2023-08-06T02:32:25;8.00;;;2.90;;
22378;SDS011;11357;49.990;7.370;2023-08-06T02:34:51;7.33;;;2.40;;
22378;SDS011;11357;49.990;7.370;2023-08-06T02:37:16;5.90;;;2.50;;
22378;SDS011;11357;49.990;7.370;2023-08-06T02:39:42;5.37;;;2.47;;
22378;SDS011;11357;49.990;7.370;2023-08-06T02:42:08;2.57;;;2.00;;
22378;SDS011;11357;49.990;7.370;2023-08-06T02:44:34;5.90;;;2.50;;
22378;SDS011;11357;49.990;7.370;2023-08-06T02:47:00;5.00;;;1.87;;
22378;SDS011;11357;49.990;7.370;2023-08-06T02:49:26;7.13;;;2.30;;
22378;SDS011;11357;49.990;7.370;2023-08-06T02:51:52;7.53;;;2.53;;
22378;SDS011;11357;49.990;7.370;2023-08-06T02:54:18;6.73;;;2.17;;
22378;SDS011;11357;49.990;7.370;2023-08-06T02:56:47;6.40;;;2.30;;
22378;SDS011;11357;49.990;7.370;2023-08-06T02:59:13;8.67;;;2.70;;
22378;SDS011;11357;49.990;7.370;2023-08-06T03:01:39;5.17;;;2.40;;
22378;SDS011;11357;49.990;7.370;2023-08-06T03:04:05;7.00;;;2.13;;
22378;SDS011;11357;49.990;7.370;2023-08-06T03:06:31;4.57;;;2.50;;
22378;SDS011;11357;49.990;7.370;2023-08-06T03:08:56;6.40;;;2.20;;
22378;SDS011;11357;49.990;7.370;2023-08-06T03:11:22;5.47;;;1.70;;
22378;SDS011;11357;49.990;7.370;2023-08-06T03:13:48;6.80;;;1.50;;
22378;SDS011;11357;49.990;7.370;2023-08-06T03:16:14;3.50;;;1.60;;
22378;SDS011;11357;49.990;7.370;2023-08-06T03:18:40;3.73;;;1.70;;
22378;SDS011;11357;49.990;7.370;2023-08-06T03:21:05;2.50;;;1.57;;
22378;SDS011;11357;49.990;7.370;2023-08-06T03:23:31;2.53;;;1.40;;
22378;SDS011;11357;49.990;7.370;2023-08-06T03:26:03;5.90;;;1.47;;
22378;SDS011;11357;49.990;7.370;2023-08-06T03:28:29;3.03;;;1.30;;
22378;SDS011;11357;49.990;7.370;2023-08-06T03:31:01;2.13;;;1.07;;
22378;SDS011;11357;49.990;7.370;2023-08-06T03:33:28;2.67;;;1.00;;
22378;SDS011;11357;49.990;7.370;2023-08-06T03:35:54;2.80;;;1.17;;
22378;SDS011;11357;49.990;7.370;2023-08-06T03:38:20;2.43;;;1.30;;
22378;SDS011;11357;49.990;7.370;2023-08-06T03:40:47;3.03;;;1.17;;
22378;SDS011;11357;49.990;7.370;2023-08-06T03:43:13;2.17;;;1.27;;
22378;SDS011;11357;49.990;7.370;2023-08-06T03:45:40;2.07;;;1.13;;
22378;SDS011;11357;49.990;7.370;2023-08-06T03:48:06;2.23;;;0.90;;
22378;SDS011;11357;49.990;7.370;2023-08-06T03:50:32;2.07;;;0.77;;
22378;SDS011;11357;49.990;7.370;2023-08-06T03:52:58;8.80;;;0.90;;
22378;SDS011;11357;49.990;7.370;2023-08-06T03:55:24;3.20;;;0.70;;
22378;SDS011;11357;49.990;7.370;2023-08-06T03:57:50;1.80;;;0.40;;
22378;SDS011;11357;49.990;7.370;2023-08-06T04:00:15;1.03;;;0.50;;
22378;SDS011;11357;49.990;7.370;2023-08-06T04:02:41;1.90;;;0.60;;
22378;SDS011;11357;49.990;7.370;2023-08-06T04:05:07;2.43;;;0.50;;
22378;SDS011;11357;49.990;7.370;2023-08-06T04:07:33;1.30;;;0.60;;
22378;SDS011;11357;49.990;7.370;2023-08-06T04:10:00;1.40;;;0.50;;
22378;SDS011;11357;49.990;7.370;2023-08-06T04:12:28;10.27;;;0.67;;
22378;SDS011;11357;49.990;7.370;2023-08-06T04:14:53;1.90;;;0.73;;
22378;SDS011;11357;49.990;7.370;2023-08-06T04:17:21;2.40;;;0.80;;
22378;SDS011;11357;49.990;7.370;2023-08-06T04:19:48;0.93;;;0.77;;
22378;SDS011;11357;49.990;7.370;2023-08-06T04:22:18;1.67;;;1.20;;
22378;SDS011;11357;49.990;7.370;2023-08-06T04:24:44;3.63;;;1.60;;
22378;SDS011;11357;49.990;7.370;2023-08-06T04:27:10;1.40;;;1.30;;
22378;SDS011;11357;49.990;7.370;2023-08-06T04:29:37;6.70;;;1.50;;
22378;SDS011;11357;49.990;7.370;2023-08-06T04:32:03;2.50;;;1.10;;
22378;SDS011;11357;49.990;7.370;2023-08-06T04:34:34;1.53;;;1.13;;
22378;SDS011;11357;49.990;7.370;2023-08-06T04:37:01;3.63;;;1.17;;
22378;SDS011;11357;49.990;7.370;2023-08-06T04:39:27;4.70;;;1.00;;
22378;SDS011;11357;49.990;7.370;2023-08-06T04:41:55;1.60;;;0.70;;
22378;SDS011;11357;49.990;7.370;2023-08-06T04:44:23;1.30;;;0.90;;
22378;SDS011;11357;49.990;7.370;2023-08-06T04:46:49;0.60;;;0.50;;
22378;SDS011;11357;49.990;7.370;2023-08-06T04:49:15;0.50;;;0.50;;
22378;SDS011;11357;49.990;7.370;2023-08-06T04:51:41;1.17;;;0.60;;
22378;SDS011;11357;49.990;7.370;2023-08-06T04:54:07;0.30;;;0.30;;
22378;SDS011;11357;49.990;7.370;2023-08-06T04:56:32;0.60;;;0.50;;
22378;SDS011;11357;49.990;7.370;2023-08-06T04:58:58;0.50;;;0.30;;
22378;SDS011;11357;49.990;7.370;2023-08-06T05:01:24;4.30;;;0.50;;
22378;SDS011;11357;49.990;7.370;2023-08-06T05:03:50;2.27;;;0.37;;
22378;SDS011;11357;49.990;7.370;2023-08-06T05:06:16;0.30;;;0.30;;
22378;SDS011;11357;49.990;7.370;2023-08-06T05:08:42;4.73;;;0.70;;
22378;SDS011;11357;49.990;7.370;2023-08-06T05:11:07;1.33;;;0.50;;
22378;SDS011;11357;49.990;7.370;2023-08-06T05:13:34;0.50;;;0.47;;
22378;SDS011;11357;49.990;7.370;2023-08-06T05:16:00;0.40;;;0.40;;
22378;SDS011;11357;49.990;7.370;2023-08-06T05:18:25;2.20;;;0.67;;
22378;SDS011;11357;49.990;7.370;2023-08-06T05:20:51;1.13;;;0.80;;
22378;SDS011;11357;49.990;7.370;2023-08-06T05:23:17;0.90;;;0.60;;
22378;SDS011;11357;49.990;7.370;2023-08-06T05:25:43;1.00;;;0.70;;
22378;SDS011;11357;49.990;7.370;2023-08-06T05:28:08;1.43;;;0.87;;
22378;SDS011;11357;49.990;7.370;2023-08-06T05:30:34;4.53;;;0.97;;
22378;SDS011;11357;49.990;7.370;2023-08-06T05:33:04;4.73;;;1.13;;
22378;SDS011;11357;49.990;7.370;2023-08-06T05:35:30;2.30;;;1.00;;
22378;SDS011;11357;49.990;7.370;2023-08-06T05:37:55;1.80;;;1.00;;
22378;SDS011;11357;49.990;7.370;2023-08-06T05:40:21;3.13;;;0.83;;
22378;SDS011;11357;49.990;7.370;2023-08-06T05:42:47;1.90;;;0.80;;
22378;SDS011;11357;49.990;7.370;2023-08-06T05:45:12;1.63;;;0.97;;
22378;SDS011;11357;49.990;7.370;2023-08-06T05:47:39;2.00;;;0.87;;
22378;SDS011;11357;49.990;7.370;2023-08-06T05:50:04;0.90;;;0.73;;
22378;SDS011;11357;49.990;7.370;2023-08-06T05:52:31;0.80;;;0.80;;
22378;SDS011;11357;49.990;7.370;2023-08-06T05:54:56;5.57;;;0.80;;
22378;SDS011;11357;49.990;7.370;2023-08-06T05:57:22;1.87;;;1.00;;
22378;SDS011;11357;49.990;7.370;2023-08-06T05:59:48;0.93;;;0.90;;
22378;SDS011;11357;49.990;7.370;2023-08-06T06:02:13;1.10;;;0.80;;
22378;SDS011;11357;49.990;7.370;2023-08-06T06:04:40;1.47;;;1.00;;
22378;SDS011;11357;49.990;7.370;2023-08-06T06:07:06;4.53;;;0.80;;
22378;SDS011;11357;49.990;7.370;2023-08-06T06:09:31;1.03;;;0.90;;
22378;SDS011;11357;49.990;7.370;2023-08-06T06:11:57;2.23;;;0.90;;
22378;SDS011;11357;49.990;7.370;2023-08-06T06:14:23;2.77;;;0.57;;
22378;SDS011;11357;49.990;7.370;2023-08-06T06:16:48;1.33;;;0.70;;
22378;SDS011;11357;49.990;7.370;2023-08-06T06:19:14;2.33;;;1.00;;
22378;SDS011;11357;49.990;7.370;2023-08-06T06:21:40;2.83;;;0.87;;
22378;SDS011;11357;49.990;7.370;2023-08-06T06:24:05;2.43;;;0.80;;
22378;SDS011;11357;49.990;7.370;2023-08-06T06:26:33;1.80;;;0.80;;
22378;SDS011;11357;49.990;7.370;2023-08-06T06:28:58;0.70;;;0.70;;
22378;SDS011;11357;49.990;7.370;2023-08-06T06:31:24;0.60;;;0.60;;
22378;SDS011;11357;49.990;7.370;2023-08-06T06:33:50;2.00;;;0.70;;
22378;SDS011;11357;49.990;7.370;2023-08-06T06:36:18;1.00;;;0.73;;
22378;SDS011;11357;49.990;7.370;2023-08-06T06:38:44;1.60;;;0.70;;
22378;SDS011;11357;49.990;7.370;2023-08-06T06:41:09;0.97;;;0.60;;
22378;SDS011;11357;49.990;7.370;2023-08-06T06:43:35;1.50;;;0.67;;
22378;SDS011;11357;49.990;7.370;2023-08-06T06:46:02;0.60;;;0.50;;
22378;SDS011;11357;49.990;7.370;2023-08-06T06:48:29;1.00;;;0.60;;
22378;SDS011;11357;49.990;7.370;2023-08-06T06:50:56;2.10;;;0.83;;
22378;SDS011;11357;49.990;7.370;2023-08-06T06:53:22;3.03;;;0.70;;
22378;SDS011;11357;49.990;7.370;2023-08-06T06:55:54;1.87;;;0.80;;
22378;SDS011;11357;49.990;7.370;2023-08-06T06:58:27;2.27;;;0.80;;
22378;SDS011;11357;49.990;7.370;2023-08-06T07:00:52;2.03;;;1.20;;
22378;SDS011;11357;49.990;7.370;2023-08-06T07:03:19;2.03;;;0.90;;
22378;SDS011;11357;49.990;7.370;2023-08-06T07:05:45;1.13;;;0.80;;
22378;SDS011;11357;49.990;7.370;2023-08-06T07:08:11;2.47;;;1.17;;
22378;SDS011;11357;49.990;7.370;2023-08-06T07:10:37;2.07;;;0.83;;
22378;SDS011;11357;49.990;7.370;2023-08-06T07:13:03;1.70;;;1.00;;
22378;SDS011;11357;49.990;7.370;2023-08-06T07:15:29;1.00;;;0.90;;
22378;SDS011;11357;49.990;7.370;2023-08-06T07:17:54;4.53;;;1.00;;
22378;SDS011;11357;49.990;7.370;2023-08-06T07:20:20;1.97;;;1.10;;
22378;SDS011;11357;49.990;7.370;2023-08-06T07:22:46;1.60;;;0.93;;
22378;SDS011;11357;49.990;7.370;2023-08-06T07:25:12;1.53;;;0.77;;
22378;SDS011;11357;49.990;7.370;2023-08-06T07:27:38;2.77;;;0.77;;
22378;SDS011;11357;49.990;7.370;2023-08-06T07:30:03;0.70;;;0.70;;
22378;SDS011;11357;49.990;7.370;2023-08-06T07:32:30;1.20;;;0.80;;
22378;SDS011;11357;49.990;7.370;2023-08-06T07:34:56;1.37;;;0.60;;
22378;SDS011;11357;49.990;7.370;2023-08-06T07:37:25;2.60;;;0.90;;
22378;SDS011;11357;49.990;7.370;2023-08-06T07:39:53;0.60;;;0.60;;
22378;SDS011;11357;49.990;7.370;2023-08-06T07:42:19;1.03;;;0.60;;
22378;SDS011;11357;49.990;7.370;2023-08-06T07:44:50;0.60;;;0.60;;
22378;SDS011;11357;49.990;7.370;2023-08-06T07:47:19;1.13;;;0.63;;
22378;SDS011;11357;49.990;7.370;2023-08-06T07:49:45;2.57;;;0.70;;
22378;SDS011;11357;49.990;7.370;2023-08-06T07:52:11;2.17;;;0.60;;
22378;SDS011;11357;49.990;7.370;2023-08-06T07:54:36;1.13;;;0.63;;
22378;SDS011;11357;49.990;7.370;2023-08-06T07:57:02;0.60;;;0.60;;
22378;SDS011;11357;49.990;7.370;2023-08-06T07:59:28;1.77;;;0.60;;
22378;SDS011;11357;49.990;7.370;2023-08-06T08:01:53;0.67;;;0.67;;
22378;SDS011;11357;49.990;7.370;2023-08-06T08:04:19;0.90;;;0.50;;
22378;SDS011;11357;49.990;7.370;2023-08-06T08:06:46;1.60;;;0.67;;
22378;SDS011;11357;49.990;7.370;2023-08-06T08:09:12;0.60;;;0.60;;
22378;SDS011;11357;49.990;7.370;2023-08-06T08:11:38;0.93;;;0.70;;
22378;SDS011;11357;49.990;7.370;2023-08-06T08:14:05;1.10;;;0.60;;
22378;SDS011;11357;49.990;7.370;2023-08-06T08:16:31;1.00;;;0.60;;
22378;SDS011;11357;49.990;7.370;2023-08-06T08:18:56;0.50;;;0.50;;
22378;SDS011;11357;49.990;7.370;2023-08-06T08:21:22;0.60;;;0.60;;
22378;SDS011;11357;49.990;7.370;2023-08-06T08:23:49;0.50;;;0.50;;
22378;SDS011;11357;49.990;7.370;2023-08-06T08:26:15;0.60;;;0.60;;
22378;SDS011;11357;49.990;7.370;2023-08-06T08:28:40;0.50;;;0.50;;
22378;SDS011;11357;49.990;7.370;2023-08-06T08:31:09;0.50;;;0.50;;
22378;SDS011;11357;49.990;7.370;2023-08-06T08:33:36;0.50;;;0.50;;
22378;SDS011;11357;49.990;7.370;2023-08-06T08:36:03;0.70;;;0.53;;
22378;SDS011;11357;49.990;7.370;2023-08-06T08:38:29;0.57;;;0.57;;
22378;SDS011;11357;49.990;7.370;2023-08-06T08:40:54;2.53;;;0.67;;
22378;SDS011;11357;49.990;7.370;2023-08-06T08:43:23;1.73;;;0.53;;
22378;SDS011;11357;49.990;7.370;2023-08-06T08:45:50;0.73;;;0.57;;
22378;SDS011;11357;49.990;7.370;2023-08-06T08:48:17;0.67;;;0.67;;
22378;SDS011;11357;49.990;7.370;2023-08-06T08:50:45;0.60;;;0.53;;
22378;SDS011;11357;49.990;7.370;2023-08-06T08:53:12;0.57;;;0.57;;
22378;SDS011;11357;49.990;7.370;2023-08-06T08:55:40;0.47;;;0.47;;
22378;SDS011;11357;49.990;7.370;2023-08-06T08:58:07;0.67;;;0.67;;
22378;SDS011;11357;49.990;7.370;2023-08-06T09:00:33;0.50;;;0.50;;
22378;SDS011;11357;49.990;7.370;2023-08-06T09:02:59;0.50;;;0.50;;
22378;SDS011;11357;49.990;7.370;2023-08-06T09:05:27;2.50;;;0.60;;
22378;SDS011;11357;49.990;7.370;2023-08-06T09:07:55;0.50;;;0.50;;
22378;SDS011;11357;49.990;7.370;2023-08-06T09:10:28;0.40;;;0.40;;
22378;SDS011;11357;49.990;7.370;2023-08-06T09:12:54;0.50;;;0.40;;
22378;SDS011;11357;49.990;7.370;2023-08-06T09:15:23;0.70;;;0.37;;
22378;SDS011;11357;49.990;7.370;2023-08-06T09:17:49;0.23;;;0.23;;
22378;SDS011;11357;49.990;7.370;2023-08-06T09:20:15;0.40;;;0.33;;
22378;SDS011;11357;49.990;7.370;2023-08-06T09:22:41;0.30;;;0.30;;
22378;SDS011;11357;49.990;7.370;2023-08-06T09:25:07;1.00;;;0.30;;
22378;SDS011;11357;49.990;7.370;2023-08-06T09:27:38;2.53;;;0.20;;
22378;SDS011;11357;49.990;7.370;2023-08-06T09:30:05;0.30;;;0.30;;
22378;SDS011;11357;49.990;7.370;2023-08-06T09:32:47;0.37;;;0.27;;
22378;SDS011;11357;49.990;7.370;2023-08-06T09:35:19;0.50;;;0.30;;
22378;SDS011;11357;49.990;7.370;2023-08-06T09:37:45;0.20;;;0.20;;
22378;SDS011;11357;49.990;7.370;2023-08-06T09:43:07;0.30;;;0.30;;
22378;SDS011;11357;49.990;7.370;2023-08-06T09:45:33;0.40;;;0.30;;
22378;SDS011;11357;49.990;7.370;2023-08-06T09:48:04;1.70;;;0.40;;
22378;SDS011;11357;49.990;7.370;2023-08-06T09:50:31;0.30;;;0.30;;
22378;SDS011;11357;49.990;7.370;2023-08-06T09:52:59;0.30;;;0.30;;
22378;SDS011;11357;49.990;7.370;2023-08-06T09:55:26;1.77;;;0.37;;
22378;SDS011;11357;49.990;7.370;2023-08-06T09:57:52;0.33;;;0.30;;
22378;SDS011;11357;49.990;7.370;2023-08-06T10:00:18;0.20;;;0.20;;
22378;SDS011;11357;49.990;7.370;2023-08-06T10:02:47;0.30;;;0.30;;
22378;SDS011;11357;49.990;7.370;2023-08-06T10:05:14;0.50;;;0.40;;
22378;SDS011;11357;49.990;7.370;2023-08-06T10:07:41;0.50;;;0.30;;
22378;SDS011;11357;49.990;7.370;2023-08-06T10:10:09;0.60;;;0.47;;
22378;SDS011;11357;49.990;7.370;2023-08-06T10:13:09;0.77;;;0.50;;
22378;SDS011;11357;49.990;7.370;2023-08-06T10:15:29;0.40;;;0.40;;
22378;SDS011;11357;49.990;7.370;2023-08-06T10:17:57;0.50;;;0.40;;
22378;SDS011;11357;49.990;7.370;2023-08-06T10:20:26;0.53;;;0.50;;
22378;SDS011;11357;49.990;7.370;2023-08-06T10:23:04;2.27;;;0.70;;
22378;SDS011;11357;49.990;7.370;2023-08-06T10:25:35;1.17;;;0.50;;
22378;SDS011;11357;49.990;7.370;2023-08-06T10:28:11;0.70;;;0.70;;
22378;SDS011;11357;49.990;7.370;2023-08-06T10:30:49;0.63;;;0.63;;
22378;SDS011;11357;49.990;7.370;2023-08-06T10:33:15;0.67;;;0.67;;
22378;SDS011;11357;49.990;7.370;2023-08-06T10:35:45;1.83;;;0.60;;
22378;SDS011;11357;49.990;7.370;2023-08-06T10:38:19;0.50;;;0.50;;
22378;SDS011;11357;49.990;7.370;2023-08-06T10:43:35;0.90;;;0.70;;
22378;SDS011;11357;49.990;7.370;2023-08-06T10:46:50;0.90;;;0.60;;
22378;SDS011;11357;49.990;7.370;2023-08-06T10:48:53;1.77;;;0.70;;
22378;SDS011;11357;49.990;7.370;2023-08-06T10:51:19;0.97;;;0.87;;
22378;SDS011;11357;49.990;7.370;2023-08-06T10:53:46;2.30;;;0.90;;
22378;SDS011;11357;49.990;7.370;2023-08-06T10:56:23;4.70;;;0.80;;
22378;SDS011;11357;49.990;7.370;2023-08-06T10:58:53;0.87;;;0.60;;
22378;SDS011;11357;49.990;7.370;2023-08-06T11:01:21;5.63;;;0.87;;
22378;SDS011;11357;49.990;7.370;2023-08-06T11:03:48;1.40;;;0.93;;
22378;SDS011;11357;49.990;7.370;2023-08-06T11:06:19;0.80;;;0.80;;
22378;SDS011;11357;49.990;7.370;2023-08-06T11:08:50;1.20;;;1.10;;
22378;SDS011;11357;49.990;7.370;2023-08-06T11:11:17;1.37;;;1.10;;
22378;SDS011;11357;49.990;7.370;2023-08-06T11:13:44;2.23;;;1.20;;
22378;SDS011;11357;49.990;7.370;2023-08-06T11:16:14;5.77;;;1.00;;
22378;SDS011;11357;49.990;7.370;2023-08-06T11:18:44;1.90;;;1.13;;
22378;SDS011;11357;49.990;7.370;2023-08-06T11:21:10;3.73;;;1.03;;
22378;SDS011;11357;49.990;7.370;2023-08-06T11:23:37;7.00;;;1.23;;
22378;SDS011;11357;49.990;7.370;2023-08-06T11:26:03;3.97;;;1.33;;
22378;SDS011;11357;49.990;7.370;2023-08-06T11:28:28;2.70;;;1.30;;
22378;SDS011;11357;49.990;7.370;2023-08-06T11:30:54;2.83;;;1.37;;
22378;SDS011;11357;49.990;7.370;2023-08-06T11:33:25;3.70;;;1.40;;
22378;SDS011;11357;49.990;7.370;2023-08-06T11:35:51;3.53;;;1.40;;
22378;SDS011;11357;49.990;7.370;2023-08-06T11:38:19;1.73;;;1.20;;
22378;SDS011;11357;49.990;7.370;2023-08-06T11:40:45;3.00;;;1.30;;
22378;SDS011;11357;49.990;7.370;2023-08-06T11:43:11;2.57;;;1.10;;
22378;SDS011;11357;49.990;7.370;2023-08-06T11:45:38;3.57;;;1.13;;
22378;SDS011;11357;49.990;7.370;2023-08-06T11:48:04;2.83;;;1.23;;
22378;SDS011;11357;49.990;7.370;2023-08-06T11:50:30;2.17;;;1.00;;
22378;SDS011;11357;49.990;7.370;2023-08-06T11:52:56;1.63;;;1.00;;
22378;SDS011;11357;49.990;7.370;2023-08-06T11:55:24;2.50;;;1.00;;
22378;SDS011;11357;49.990;7.370;2023-08-06T11:57:50;2.13;;;1.13;;
22378;SDS011;11357;49.990;7.370;2023-08-06T12:00:16;1.83;;;1.03;;
22378;SDS011;11357;49.990;7.370;2023-08-06T12:02:45;2.43;;;1.33;;
22378;SDS011;11357;49.990;7.370;2023-08-06T12:05:12;3.67;;;1.10;;
22378;SDS011;11357;49.990;7.370;2023-08-06T12:07:42;2.90;;;1.20;;
22378;SDS011;11357;49.990;7.370;2023-08-06T12:10:13;3.83;;;1.30;;
22378;SDS011;11357;49.990;7.370;2023-08-06T12:12:40;3.10;;;1.10;;
22378;SDS011;11357;49.990;7.370;2023-08-06T12:15:06;4.17;;;1.40;;
22378;SDS011;11357;49.990;7.370;2023-08-06T12:17:33;3.07;;;1.50;;
22378;SDS011;11357;49.990;7.370;2023-08-06T12:19:59;1.53;;;1.27;;
22378;SDS011;11357;49.990;7.370;2023-08-06T12:22:25;5.60;;;1.40;;
22378;SDS011;11357;49.990;7.370;2023-08-06T12:24:51;3.50;;;1.10;;
22378;SDS011;11357;49.990;7.370;2023-08-06T12:27:17;5.80;;;1.40;;
22378;SDS011;11357;49.990;7.370;2023-08-06T12:29:43;5.97;;;1.53;;
22378;SDS011;11357;49.990;7.370;2023-08-06T12:32:10;7.33;;;1.40;;
22378;SDS011;11357;49.990;7.370;2023-08-06T12:34:40;5.73;;;1.10;;
22378;SDS011;11357;49.990;7.370;2023-08-06T12:37:07;5.53;;;1.33;;
22378;SDS011;11357;49.990;7.370;2023-08-06T12:39:33;3.37;;;1.00;;
22378;SDS011;11357;49.990;7.370;2023-08-06T12:42:00;4.40;;;1.20;;
22378;SDS011;11357;49.990;7.370;2023-08-06T12:44:28;4.53;;;1.10;;
22378;SDS011;11357;49.990;7.370;2023-08-06T12:46:54;3.07;;;1.10;;
22378;SDS011;11357;49.990;7.370;2023-08-06T12:49:20;4.40;;;1.10;;
22378;SDS011;11357;49.990;7.370;2023-08-06T12:51:46;1.40;;;0.80;;
22378;SDS011;11357;49.990;7.370;2023-08-06T12:54:12;2.23;;;1.10;;
22378;SDS011;11357;49.990;7.370;2023-08-06T12:56:38;1.77;;;0.90;;
22378;SDS011;11357;49.990;7.370;2023-08-06T12:59:04;1.03;;;0.90;;
22378;SDS011;11357;49.990;7.370;2023-08-06T13:01:29;3.00;;;1.00;;
22378;SDS011;11357;49.990;7.370;2023-08-06T13:03:55;2.27;;;0.80;;
22378;SDS011;11357;49.990;7.370;2023-08-06T13:06:21;4.53;;;1.07;;
22378;SDS011;11357;49.990;7.370;2023-08-06T13:08:46;2.60;;;1.00;;
22378;SDS011;11357;49.990;7.370;2023-08-06T13:11:12;2.43;;;0.97;;
22378;SDS011;11357;49.990;7.370;2023-08-06T13:13:38;3.67;;;1.00;;
22378;SDS011;11357;49.990;7.370;2023-08-06T13:16:03;3.23;;;1.10;;
22378;SDS011;11357;49.990;7.370;2023-08-06T13:18:29;1.37;;;0.97;;
22378;SDS011;11357;49.990;7.370;2023-08-06T13:20:56;2.87;;;1.03;;
22378;SDS011;11357;49.990;7.370;2023-08-06T13:23:21;3.40;;;0.97;;
22378;SDS011;11357;49.990;7.370;2023-08-06T13:25:47;2.57;;;0.80;;
22378;SDS011;11357;49.990;7.370;2023-08-06T13:28:13;2.10;;;1.00;;
22378;SDS011;11357;49.990;7.370;2023-08-06T13:30:39;1.23;;;1.00;;
22378;SDS011;11357;49.990;7.370;2023-08-06T13:33:06;5.63;;;0.90;;
22378;SDS011;11357;49.990;7.370;2023-08-06T13:35:36;1.67;;;0.80;;
22378;SDS011;11357;49.990;7.370;2023-08-06T13:38:02;1.27;;;0.90;;
22378;SDS011;11357;49.990;7.370;2023-08-06T13:40:28;1.63;;;0.90;;
22378;SDS011;11357;49.990;7.370;2023-08-06T13:42:55;2.00;;;0.87;;
22378;SDS011;11357;49.990;7.370;2023-08-06T13:45:20;4.83;;;0.80;;
22378;SDS011;11357;49.990;7.370;2023-08-06T13:47:46;0.93;;;0.60;;
22378;SDS011;11357;49.990;7.370;2023-08-06T13:50:12;2.17;;;0.80;;
22378;SDS011;11357;49.990;7.370;2023-08-06T13:52:38;1.80;;;0.70;;
22378;SDS011;11357;49.990;7.370;2023-08-06T13:55:05;2.63;;;0.60;;
22378;SDS011;11357;49.990;7.370;2023-08-06T13:57:31;0.50;;;0.50;;
22378;SDS011;11357;49.990;7.370;2023-08-06T13:59:57;2.53;;;0.60;;
22378;SDS011;11357;49.990;7.370;2023-08-06T14:02:22;1.20;;;0.60;;
22378;SDS011;11357;49.990;7.370;2023-08-06T14:04:48;1.47;;;0.60;;
22378;SDS011;11357;49.990;7.370;2023-08-06T14:07:14;2.50;;;0.60;;
22378;SDS011;11357;49.990;7.370;2023-08-06T14:09:39;0.60;;;0.50;;
22378;SDS011;11357;49.990;7.370;2023-08-06T14:12:07;1.17;;;0.73;;
22378;SDS011;11357;49.990;7.370;2023-08-06T14:14:33;0.50;;;0.50;;
22378;SDS011;11357;49.990;7.370;2023-08-06T14:16:59;1.27;;;0.53;;
22378;SDS011;11357;49.990;7.370;2023-08-06T14:19:24;0.50;;;0.50;;
22378;SDS011;11357;49.990;7.370;2023-08-06T14:21:50;0.63;;;0.50;;
22378;SDS011;11357;49.990;7.370;2023-08-06T14:24:16;0.40;;;0.40;;
22378;SDS011;11357;49.990;7.370;2023-08-06T14:26:41;0.60;;;0.60;;
22378;SDS011;11357;49.990;7.370;2023-08-06T14:29:07;1.27;;;0.60;;
22378;SDS011;11357;49.990;7.370;2023-08-06T14:31:33;0.87;;;0.60;;
22378;SDS011;11357;49.990;7.370;2023-08-06T14:33:58;1.17;;;0.60;;
22378;SDS011;11357;49.990;7.370;2023-08-06T14:36:25;1.70;;;0.47;;
22378;SDS011;11357;49.990;7.370;2023-08-06T14:38:51;1.73;;;0.47;;
22378;SDS011;11357;49.990;7.370;2023-08-06T14:41:17;2.30;;;0.60;;
22378;SDS011;11357;49.990;7.370;2023-08-06T14:43:42;2.93;;;0.60;;
22378;SDS011;11357;49.990;7.370;2023-08-06T14:46:08;1.10;;;0.33;;
22378;SDS011;11357;49.990;7.370;2023-08-06T14:48:34;2.87;;;0.70;;
22378;SDS011;11357;49.990;7.370;2023-08-06T14:50:59;0.50;;;0.50;;
22378;SDS011;11357;49.990;7.370;2023-08-06T14:53:26;0.70;;;0.70;;
22378;SDS011;11357;49.990;7.370;2023-08-06T14:55:51;1.17;;;0.50;;